Time;durP1;ratioP1;P1;durP2;ratioP2;P2;SDS_P1;SDS_P2;PMS_P1;PMS_P2;Temp;Humidity;BMP_temperature;BMP_pressure;BME280_temperature;BME280_humidity;BME280_pressure;Samples;Min_cycle;Max_cycle;Signal;HPM_P1;HPM_P2
2022/02/26 00:00:15;;;;;;;12.87;3.97;;;;;;;3.58;100.00;101554.09;6040882;23;20027;-85
2022/02/26 00:02:45;;;;;;;8.73;2.83;;;;;;;3.51;100.00;101555.66;6021583;23;20026;-84
2022/02/26 00:05:12;;;;;;;11.50;3.47;;;;;;;3.48;100.00;101565.19;6068291;23;20027;-86
2022/02/26 00:07:39;;;;;;;19.43;3.97;;;;;;;3.53;100.00;101574.91;6042427;23;20030;-87
2022/02/26 00:10:06;;;;;;;8.23;2.73;;;;;;;3.52;100.00;101580.94;6019772;23;20030;-83
2022/02/26 00:12:35;;;;;;;9.63;3.50;;;;;;;3.43;100.00;101578.13;6020376;23;20083;-83
2022/02/26 00:15:02;;;;;;;17.20;3.43;;;;;;;3.47;100.00;101587.81;6066962;23;20026;-85
2022/02/26 00:17:30;;;;;;;9.10;3.37;;;;;;;3.40;100.00;101593.75;6066970;23;20500;-87
2022/02/26 00:19:56;;;;;;;14.07;3.20;;;;;;;3.47;100.00;101586.94;6043240;23;20026;-85
2022/02/26 00:22:31;;;;;;;11.85;3.85;;;;;;;3.44;100.00;101595.56;6066855;23;20030;-86
2022/02/26 00:24:57;;;;;;;12.23;3.30;;;;;;;3.48;100.00;101599.16;6038012;23;20025;-84
2022/02/26 00:27:24;;;;;;;16.37;3.93;;;;;;;3.47;100.00;101600.00;6041276;23;20086;-86
2022/02/26 00:29:50;;;;;;;16.50;3.80;;;;;;;3.50;100.00;101597.44;6042846;23;20022;-86
2022/02/26 00:32:20;;;;;;;13.17;3.40;;;;;;;3.38;100.00;101600.66;6066132;23;20407;-85
2022/02/26 00:34:50;;;;;;;18.60;4.40;;;;;;;3.45;100.00;101599.06;6066814;23;20026;-85
2022/02/26 00:37:17;;;;;;;9.27;3.30;;;;;;;3.44;100.00;101615.56;6042982;23;20074;-85
2022/02/26 00:39:44;;;;;;;10.10;3.00;;;;;;;3.37;100.00;101623.28;6067121;23;20058;-84
2022/02/26 00:42:10;;;;;;;9.47;3.30;;;;;;;3.33;100.00;101624.03;6067279;23;20094;-84
2022/02/26 00:44:42;;;;;;;23.30;5.53;;;;;;;3.36;100.00;101628.44;6040894;23;20027;-86
2022/02/26 00:47:09;;;;;;;12.47;4.50;;;;;;;3.41;100.00;101631.19;6065857;23;20073;-84
2022/02/26 00:49:47;;;;;;;12.67;3.47;;;;;;;3.33;100.00;101631.88;6043293;23;20474;-84
2022/02/26 00:52:14;;;;;;;13.57;3.67;;;;;;;3.37;100.00;101641.56;6068266;23;20108;-85
2022/02/26 00:54:41;;;;;;;15.87;3.87;;;;;;;3.44;100.00;101637.34;6042354;23;20022;-85
2022/02/26 00:57:08;;;;;;;15.90;5.40;;;;;;;3.43;100.00;101637.31;6066101;23;20022;-85
2022/02/26 00:59:37;;;;;;;15.67;4.30;;;;;;;3.34;100.00;101643.22;6043861;23;20030;-86
2022/02/26 01:02:06;;;;;;;10.40;2.80;;;;;;;3.30;100.00;101649.22;6066900;23;20400;-84
2022/02/26 01:04:34;;;;;;;10.13;3.43;;;;;;;3.31;100.00;101654.47;6018525;23;20423;-85
2022/02/26 01:07:02;;;;;;;15.40;3.93;;;;;;;3.28;100.00;101656.09;6043134;23;20050;-87
2022/02/26 01:09:36;;;;;;;18.57;3.57;;;;;;;3.35;100.00;101661.53;6018572;23;20450;-85
2022/02/26 01:12:13;;;;;;;9.10;3.10;;;;;;;3.32;100.00;101663.19;6067182;23;20362;-85
2022/02/26 01:14:40;;;;;;;8.57;3.95;;;;;;;3.33;100.00;101670.19;6067143;23;20339;-86
2022/02/26 01:17:09;;;;;;;15.70;3.40;;;;;;;3.36;100.00;101676.38;6066642;23;20106;-86
2022/02/26 01:19:40;;;;;;;12.00;4.30;;;;;;;3.37;100.00;101675.53;6043063;23;20058;-87
2022/02/26 01:22:07;;;;;;;12.93;5.53;;;;;;;3.35;100.00;101674.59;6043756;23;20026;-87
2022/02/26 01:24:35;;;;;;;21.53;5.70;;;;;;;3.49;100.00;101676.66;6042294;23;20044;-85
2022/02/26 01:27:03;;;;;;;16.30;4.20;;;;;;;3.51;100.00;101683.69;6042896;23;20113;-83
2022/02/26 01:29:30;;;;;;;14.10;4.00;;;;;;;3.44;100.00;101673.06;6041762;23;20085;-85
2022/02/26 01:31:59;;;;;;;14.50;3.67;;;;;;;3.38;100.00;101687.75;6067157;23;20030;-85
2022/02/26 01:34:32;;;;;;;12.07;4.07;;;;;;;3.37;100.00;101679.88;6042811;23;20030;-85
2022/02/26 01:37:14;;;;;;;14.67;4.13;;;;;;;3.38;100.00;101687.75;6067416;23;20061;-86
2022/02/26 01:39:41;;;;;;;14.97;3.47;;;;;;;3.39;100.00;101692.13;6020005;23;20022;-84
2022/02/26 01:42:08;;;;;;;20.83;5.07;;;;;;;3.34;100.00;101688.50;6067520;23;20026;-85
2022/02/26 01:44:37;;;;;;;17.10;5.03;;;;;;;3.36;100.00;101691.13;6041763;23;20018;-83
2022/02/26 01:47:06;;;;;;;22.63;5.73;;;;;;;3.42;100.00;101691.31;6067089;23;20027;-85
2022/02/26 01:49:33;;;;;;;17.43;5.70;;;;;;;3.39;100.00;101696.47;6019200;23;20030;-85
2022/02/26 01:51:59;;;;;;;13.83;3.60;;;;;;;3.35;100.00;101700.72;6042340;23;20034;-83
2022/02/26 01:54:26;;;;;;;11.23;3.67;;;;;;;3.36;100.00;101702.50;6066460;23;20018;-86
2022/02/26 01:56:53;;;;;;;13.63;4.27;;;;;;;3.38;100.00;101706.03;6065597;23;20501;-86
2022/02/26 01:59:22;;;;;;;10.63;4.67;;;;;;;3.40;100.00;101706.06;6043531;23;20026;-86
2022/02/26 02:01:54;;;;;;;14.40;4.10;;;;;;;3.36;100.00;101704.19;6067179;23;20026;-86
2022/02/26 02:04:21;;;;;;;10.57;3.73;;;;;;;3.42;100.00;101711.31;6041775;23;20077;-86
2022/02/26 02:06:48;;;;;;;13.63;4.13;;;;;;;3.46;100.00;101715.78;6017986;23;20038;-82
2022/02/26 02:09:17;;;;;;;12.37;3.80;;;;;;;3.42;100.00;101719.16;6043841;23;20022;-84
2022/02/26 02:11:44;;;;;;;16.23;3.83;;;;;;;3.41;100.00;101726.09;6042739;23;20030;-84
2022/02/26 02:14:11;;;;;;;11.30;3.60;;;;;;;3.39;100.00;101727.81;6042240;23;20027;-85
2022/02/26 02:16:37;;;;;;;16.60;4.47;;;;;;;3.40;100.00;101724.34;6042319;23;20026;-86
2022/02/26 02:19:10;;;;;;;14.13;3.87;;;;;;;3.37;100.00;101727.78;6042340;23;20030;-83
2022/02/26 02:21:38;;;;;;;15.03;4.77;;;;;;;3.42;100.00;101727.00;6066423;23;20035;-86
2022/02/26 02:24:06;;;;;;;14.90;4.13;;;;;;;3.43;100.00;101727.03;6066198;23;20113;-86
2022/02/26 02:26:40;;;;;;;16.23;4.07;;;;;;;3.50;100.00;101728.06;6065505;23;20078;-86
2022/02/26 02:29:08;;;;;;;13.00;4.50;;;;;;;3.49;100.00;101729.81;6020207;23;20420;-83
2022/02/26 02:31:35;;;;;;;14.43;4.83;;;;;;;3.45;100.00;101732.28;6046201;23;20074;-87
2022/02/26 02:34:08;;;;;;;17.17;4.83;;;;;;;3.42;100.00;101729.59;6046777;23;20099;-84
2022/02/26 02:36:45;;;;;;;13.33;4.23;;;;;;;3.44;100.00;101735.75;6069954;23;20027;-85
2022/02/26 02:39:14;;;;;;;16.73;4.33;;;;;;;3.40;100.00;101737.41;6070026;23;20023;-86
2022/02/26 02:41:41;;;;;;;17.10;4.47;;;;;;;3.44;100.00;101733.13;6046719;23;20362;-85
2022/02/26 02:44:13;;;;;;;7.37;2.80;;;;;;;3.39;100.00;101744.38;6046127;23;20513;-85
2022/02/26 02:46:40;;;;;;;12.33;3.80;;;;;;;3.34;100.00;101745.97;6046734;23;20027;-85
2022/02/26 02:49:07;;;;;;;13.23;4.33;;;;;;;3.30;100.00;101748.47;6046383;23;20026;-85
2022/02/26 02:51:34;;;;;;;13.57;3.97;;;;;;;3.26;100.00;101751.81;6022730;23;20026;-85
2022/02/26 02:54:00;;;;;;;16.67;4.90;;;;;;;3.27;100.00;101746.63;6069563;23;20083;-86
2022/02/26 02:56:27;;;;;;;19.57;5.83;;;;;;;3.49;100.00;101749.81;6045682;23;20053;-83
2022/02/26 02:58:54;;;;;;;13.73;4.23;;;;;;;3.41;100.00;101759.19;6070212;23;20026;-85
2022/02/26 03:01:20;;;;;;;13.87;4.27;;;;;;;3.22;100.00;101756.09;6094277;23;20026;-86
2022/02/26 03:03:47;;;;;;;14.37;5.23;;;;;;;3.19;100.00;101762.94;6069106;23;20023;-85
2022/02/26 03:06:14;;;;;;;14.63;4.17;;;;;;;3.17;100.00;101770.75;6046106;23;20085;-86
2022/02/26 03:08:41;;;;;;;12.40;4.10;;;;;;;3.11;100.00;101767.94;6069074;23;20026;-86
2022/02/26 03:11:08;;;;;;;17.40;5.03;;;;;;;3.15;100.00;101774.16;6076407;23;20029;-76
2022/02/26 03:13:39;;;;;;;14.77;5.27;;;;;;;3.08;100.00;101792.25;6079318;23;20081;-80
2022/02/26 03:16:05;;;;;;;17.90;5.60;;;;;;;3.13;100.00;101786.28;6066162;23;20026;-80
2022/02/26 03:18:32;;;;;;;17.10;5.23;;;;;;;3.23;100.00;101799.63;6050274;23;20030;-80
2022/02/26 03:20:59;;;;;;;22.77;4.80;;;;;;;3.20;100.00;101804.78;6049584;23;20461;-79
2022/02/26 03:23:25;;;;;;;23.70;6.20;;;;;;;3.17;100.00;101803.81;6049928;23;20446;-80
2022/02/26 03:25:52;;;;;;;13.20;4.77;;;;;;;3.10;100.00;101813.19;6073019;23;20018;-79
2022/02/26 03:28:19;;;;;;;20.10;5.30;;;;;;;3.14;100.00;101814.16;6050730;23;20339;-80
2022/02/26 03:30:45;;;;;;;22.03;4.53;;;;;;;3.10;100.00;101828.84;6097306;23;20534;-79
2022/02/26 03:33:12;;;;;;;13.63;4.00;;;;;;;3.11;100.00;101822.78;6048358;23;20027;-78
2022/02/26 03:35:39;;;;;;;12.67;5.30;;;;;;;3.21;100.00;101832.66;6073018;23;20029;-78
2022/02/26 03:38:06;;;;;;;19.83;5.03;;;;;;;3.15;100.00;101836.81;6073122;23;20090;-79
2022/02/26 03:40:35;;;;;;;16.83;3.83;;;;;;;3.16;100.00;101831.63;6048883;23;20033;-79
2022/02/26 03:43:03;;;;;;;14.63;4.93;;;;;;;3.27;100.00;101842.38;6049216;23;20077;-79
2022/02/26 03:45:29;;;;;;;12.63;4.23;;;;;;;3.25;100.00;101846.69;6047790;23;20026;-79
2022/02/26 03:47:56;;;;;;;20.43;6.00;;;;;;;3.26;100.00;101845.84;6026341;23;20031;-79
2022/02/26 03:50:23;;;;;;;10.20;4.20;;;;;;;3.27;100.00;101852.81;6073474;23;20018;-79
2022/02/26 03:52:50;;;;;;;18.87;5.50;;;;;;;3.26;100.00;101851.06;6049077;23;20025;-78
2022/02/26 03:55:16;;;;;;;17.27;5.23;;;;;;;3.26;100.00;101856.28;6025275;23;20328;-78
2022/02/26 03:57:46;;;;;;;14.87;4.03;;;;;;;3.30;100.00;101869.50;6050181;23;20029;-80
2022/02/26 04:00:13;;;;;;;12.90;4.20;;;;;;;3.23;100.00;101867.53;6072876;23;20105;-78
2022/02/26 04:02:42;;;;;;;16.57;4.30;;;;;;;3.21;100.00;101864.00;6048638;23;20109;-78
2022/02/26 04:05:11;;;;;;;15.13;4.27;;;;;;;3.26;100.00;101871.97;6048572;23;20022;-78
2022/02/26 04:07:40;;;;;;;14.43;3.70;;;;;;;3.22;100.00;101876.22;6049219;23;20023;-79
2022/02/26 04:10:08;;;;;;;12.00;5.27;;;;;;;3.27;100.00;101882.44;6025865;23;20097;-79
2022/02/26 04:12:34;;;;;;;13.33;3.30;;;;;;;3.24;100.00;101877.13;6116479;23;20033;-80
2022/02/26 04:15:01;;;;;;;13.53;4.43;;;;;;;3.27;100.00;101889.41;6076740;23;20025;-79
2022/02/26 04:17:28;;;;;;;18.03;4.47;;;;;;;3.31;100.00;101897.38;6101902;23;20018;-79
2022/02/26 04:19:55;;;;;;;18.80;4.87;;;;;;;3.35;100.00;101894.00;6100957;23;20492;-78
2022/02/26 04:22:21;;;;;;;21.47;6.63;;;;;;;3.31;100.00;101900.00;6054047;23;20029;-79
2022/02/26 04:24:48;;;;;;;13.33;3.87;;;;;;;3.30;100.00;101907.78;6076932;23;20081;-79
2022/02/26 04:27:15;;;;;;;17.77;5.17;;;;;;;3.37;100.00;101908.00;6101664;23;20046;-79
2022/02/26 04:29:41;;;;;;;20.03;5.67;;;;;;;3.34;100.00;101913.13;6053038;23;20033;-78
2022/02/26 04:32:28;;;;;;;15.10;4.37;;;;;;;3.31;100.00;101915.66;6105693;23;20172;-79
2022/02/26 04:34:55;;;;;;;12.93;4.07;;;;;;;3.31;100.00;101930.44;6076446;23;20022;-79
2022/02/26 04:37:21;;;;;;;20.87;6.07;;;;;;;3.39;100.00;101932.44;6101883;23;20088;-80
2022/02/26 04:39:48;;;;;;;16.00;4.00;;;;;;;3.36;100.00;101937.59;6054665;23;20022;-78
2022/02/26 04:42:15;;;;;;;15.53;4.93;;;;;;;3.41;100.00;101935.09;6077788;23;20029;-79
2022/02/26 04:44:42;;;;;;;17.00;4.07;;;;;;;3.47;100.00;101937.00;6077457;23;20018;-79
2022/02/26 04:47:09;;;;;;;18.53;5.00;;;;;;;3.43;100.00;101938.63;6100799;23;20093;-79
2022/02/26 04:49:38;;;;;;;13.27;4.57;;;;;;;3.38;100.00;101943.75;6101892;23;20354;-79
2022/02/26 04:52:05;;;;;;;15.47;3.93;;;;;;;3.36;100.00;101948.03;6077399;23;20030;-78
2022/02/26 04:54:32;;;;;;;14.17;3.50;;;;;;;3.35;100.00;101951.47;6076493;23;20022;-79
2022/02/26 04:57:00;;;;;;;15.67;5.30;;;;;;;3.43;100.00;101963.88;6077699;23;20045;-79
2022/02/26 04:59:27;;;;;;;16.13;5.63;;;;;;;3.35;100.00;101963.63;6076866;23;20036;-77
2022/02/26 05:01:53;;;;;;;15.60;4.43;;;;;;;3.42;100.00;101975.16;6080731;23;20030;-80
2022/02/26 05:04:20;;;;;;;13.10;4.33;;;;;;;3.41;100.00;101970.78;6104842;23;20457;-79
2022/02/26 05:06:47;;;;;;;12.80;4.07;;;;;;;3.46;100.00;101977.03;6055037;23;20026;-78
2022/02/26 05:09:13;;;;;;;15.50;4.37;;;;;;;3.41;100.00;101983.84;6079249;23;20446;-79
2022/02/26 05:11:40;;;;;;;11.33;3.93;;;;;;;3.47;100.00;101984.91;6056061;23;20081;-79
2022/02/26 05:14:07;;;;;;;11.83;3.73;;;;;;;3.41;100.00;101981.22;6126663;23;20026;-79
2022/02/26 05:16:33;;;;;;;17.37;4.47;;;;;;;3.40;100.00;101993.41;6101598;23;20077;-79
2022/02/26 05:19:03;;;;;;;10.53;3.90;;;;;;;3.38;100.00;102006.44;6079214;23;20073;-80
2022/02/26 05:21:34;;;;;;;9.23;3.17;;;;;;;3.41;100.00;101996.91;6102894;23;20026;-80
2022/02/26 05:24:01;;;;;;;13.00;5.00;;;;;;;3.52;100.00;101998.09;6077234;23;20032;-80
2022/02/26 05:26:28;;;;;;;11.63;5.07;;;;;;;3.50;100.00;102005.00;6076467;23;20022;-78
2022/02/26 05:28:54;;;;;;;11.93;4.30;;;;;;;3.51;100.00;102001.56;6077220;23;20640;-79
2022/02/26 05:31:21;;;;;;;14.83;4.07;;;;;;;3.52;100.00;102013.78;6101650;23;20022;-79
2022/02/26 05:33:47;;;;;;;14.93;5.63;;;;;;;3.72;100.00;102012.66;6078272;23;20362;-78
2022/02/26 05:36:14;;;;;;;15.97;4.07;;;;;;;3.62;100.00;102021.97;6076387;23;20018;-79
2022/02/26 05:38:41;;;;;;;13.57;4.87;;;;;;;3.52;100.00;102027.72;6125561;23;20022;-78
2022/02/26 05:41:09;;;;;;;8.03;3.10;;;;;;;3.48;100.00;102040.66;6076412;23;20033;-78
2022/02/26 05:43:36;;;;;;;11.27;3.57;;;;;;;3.50;100.00;102041.59;6078117;23;20033;-79
2022/02/26 05:46:03;;;;;;;14.97;4.67;;;;;;;3.52;100.00;102052.97;6100514;23;20018;-79
2022/02/26 05:48:30;;;;;;;14.57;4.03;;;;;;;3.50;100.00;102050.31;6100996;23;20022;-78
2022/02/26 05:50:57;;;;;;;11.00;3.77;;;;;;;3.49;100.00;102053.78;6053207;23;20021;-79
2022/02/26 05:53:24;;;;;;;16.73;3.70;;;;;;;3.64;100.00;102054.25;6078493;23;20021;-79
2022/02/26 05:55:51;;;;;;;10.50;4.03;;;;;;;3.56;100.00;102060.09;6076802;23;20085;-78
2022/02/26 05:58:18;;;;;;;9.87;3.53;;;;;;;3.47;100.00;102065.91;6102341;23;20453;-79
2022/02/26 06:00:44;;;;;;;10.93;3.30;;;;;;;3.47;100.00;102072.88;6101355;23;20077;-79
2022/02/26 06:03:11;;;;;;;12.90;3.57;;;;;;;3.49;100.00;102087.75;6076947;23;20042;-79
2022/02/26 06:05:38;;;;;;;11.57;3.80;;;;;;;3.52;100.00;102084.31;6103422;23;20018;-80
2022/02/26 06:08:05;;;;;;;11.67;3.70;;;;;;;3.67;100.00;102083.06;6060720;23;20029;-78
2022/02/26 06:10:31;;;;;;;16.23;3.23;;;;;;;3.61;100.00;102100.28;6106735;23;20026;-80
2022/02/26 06:12:59;;;;;;;10.90;3.33;;;;;;;3.55;100.00;102106.22;6032548;23;20093;-79
2022/02/26 06:15:26;;;;;;;9.83;3.13;;;;;;;3.53;100.00;102109.63;6076050;23;20074;-79
2022/02/26 06:17:52;;;;;;;9.07;3.27;;;;;;;3.54;100.00;102108.81;6077398;23;20026;-80
2022/02/26 06:20:19;;;;;;;9.03;2.50;;;;;;;3.57;100.00;102125.44;6051092;23;20037;-79
2022/02/26 06:22:46;;;;;;;9.60;4.23;;;;;;;3.68;100.00;102126.66;6053314;23;20037;-79
2022/02/26 06:25:13;;;;;;;11.93;3.30;;;;;;;3.70;100.00;102131.03;6075380;23;20085;-79
2022/02/26 06:27:42;;;;;;;8.27;3.23;;;;;;;3.56;100.00;102126.28;6051581;23;20023;-79
2022/02/26 06:30:10;;;;;;;7.87;2.30;;;;;;;3.52;100.00;102141.81;6050888;23;20387;-81
2022/02/26 06:32:38;;;;;;;8.60;2.40;;;;;;;3.53;100.00;102138.34;6071966;23;20027;-80
2022/02/26 06:35:06;;;;;;;10.73;2.23;;;;;;;3.56;100.00;102148.94;6045899;23;20022;-79
2022/02/26 06:37:33;;;;;;;15.93;7.23;;;;;;;3.53;100.00;102154.03;6070745;23;20030;-79
2022/02/26 06:39:59;;;;;;;10.67;3.40;;;;;;;3.44;100.00;102157.25;6070837;23;20658;-79
2022/02/26 06:42:26;;;;;;;19.57;9.43;;;;;;;3.49;100.00;102162.63;6046585;23;20053;-78
2022/02/26 06:44:53;;;;;;;60.70;33.43;;;;;;;3.57;100.00;102164.66;6046301;23;20019;-79
2022/02/26 06:47:20;;;;;;;17.40;9.63;;;;;;;3.58;100.00;102174.25;6052711;23;20022;-78
2022/02/26 06:49:47;;;;;;;13.10;4.37;;;;;;;3.53;100.00;102175.84;6055813;23;20026;-81
2022/02/26 06:52:14;;;;;;;10.37;3.00;;;;;;;3.52;100.00;102181.00;6030831;23;20081;-79
2022/02/26 06:54:40;;;;;;;6.23;2.57;;;;;;;3.48;100.00;102190.47;6056346;23;20027;-79
2022/02/26 06:57:27;;;;;;;9.97;3.50;;;;;;;3.72;100.00;102194.72;6081159;23;20037;-80
2022/02/26 06:59:54;;;;;;;8.87;3.80;;;;;;;3.80;100.00;102201.09;6028970;23;20023;-80
2022/02/26 07:02:20;;;;;;;14.73;7.90;;;;;;;3.77;100.00;102200.97;6051686;23;20032;-79
2022/02/26 07:04:47;;;;;;;13.97;5.03;;;;;;;3.75;100.00;102206.16;6026230;23;20034;-80
2022/02/26 07:07:14;;;;;;;9.50;3.17;;;;;;;3.75;100.00;102218.34;6051639;23;20026;-80
2022/02/26 07:09:41;;;;;;;17.50;8.57;;;;;;;3.70;100.00;102223.44;6076671;23;20086;-79
2022/02/26 07:12:09;;;;;;;8.90;3.33;;;;;;;3.73;100.00;102227.88;6099737;23;20026;-81
2022/02/26 07:14:36;;;;;;;46.47;17.30;;;;;;;3.80;100.00;102233.34;6029402;23;20026;-81
2022/02/26 07:17:03;;;;;;;22.40;8.93;;;;;;;3.80;100.00;102235.97;6029060;23;20025;-78
2022/02/26 07:19:30;;;;;;;12.23;5.20;;;;;;;3.74;100.00;102238.38;6100982;23;20029;-80
2022/02/26 07:21:59;;;;;;;13.80;6.03;;;;;;;3.79;100.00;102249.00;6029318;23;20110;-79
2022/02/26 07:24:26;;;;;;;20.03;8.80;;;;;;;3.81;100.00;102244.69;6077264;23;20410;-79
2022/02/26 07:26:53;;;;;;;14.43;6.10;;;;;;;3.86;100.00;102245.72;6055332;23;20485;-78
2022/02/26 07:29:20;;;;;;;45.83;21.10;;;;;;;3.88;100.00;102247.56;6109642;23;20077;-80
2022/02/26 07:31:46;;;;;;;8.83;3.77;;;;;;;4.03;100.00;102256.72;6083742;23;20030;-80
2022/02/26 07:34:13;;;;;;;10.93;4.23;;;;;;;3.77;100.00;102266.31;6080371;23;20022;-81
2022/02/26 07:36:43;;;;;;;14.23;6.13;;;;;;;3.80;100.00;102259.50;6056611;23;20015;-78
2022/02/26 07:39:10;;;;;;;32.90;16.70;;;;;;;3.77;100.00;102266.31;6051229;23;20101;-78
2022/02/26 07:41:37;;;;;;;7.23;3.30;;;;;;;3.68;100.00;102274.75;6018755;23;20085;-81
2022/02/26 07:44:04;;;;;;;10.00;3.67;;;;;;;3.61;100.00;102275.38;6054704;23;20060;-80
2022/02/26 07:46:31;;;;;;;8.20;3.13;;;;;;;3.80;100.00;102279.53;6077459;23;20019;-80
2022/02/26 07:48:58;;;;;;;12.27;4.80;;;;;;;3.69;100.00;102292.22;6053402;23;20029;-79
2022/02/26 07:51:26;;;;;;;10.13;3.00;;;;;;;3.70;100.00;102300.94;6100811;23;20372;-80
2022/02/26 07:53:53;;;;;;;7.07;3.30;;;;;;;3.70;100.00;102303.56;6076789;23;20022;-79
2022/02/26 07:56:20;;;;;;;8.23;2.97;;;;;;;3.69;100.00;102310.50;6051262;23;20019;-81
2022/02/26 07:58:52;;;;;;;8.20;3.07;;;;;;;3.65;100.00;102314.75;6099726;23;20026;-78
2022/02/26 08:01:19;;;;;;;8.63;2.67;;;;;;;3.63;100.00;102323.38;6097571;23;20022;-80
2022/02/26 08:03:46;;;;;;;10.50;3.10;;;;;;;3.67;100.00;102327.88;6047813;23;20033;-78
2022/02/26 08:06:13;;;;;;;7.23;3.20;;;;;;;3.72;100.00;102323.69;6048412;23;20023;-80
2022/02/26 08:08:39;;;;;;;10.00;3.23;;;;;;;3.60;100.00;102338.94;6073684;23;20026;-81
2022/02/26 08:11:06;;;;;;;5.60;2.77;;;;;;;3.82;100.00;102341.47;6074444;23;20029;-78
2022/02/26 08:13:33;;;;;;;6.77;3.47;;;;;;;3.87;100.00;102345.13;6098558;23;20029;-79
2022/02/26 08:15:59;;;;;;;8.33;3.03;;;;;;;3.86;100.00;102353.78;6074105;23;20022;-80
2022/02/26 08:18:26;;;;;;;7.93;2.90;;;;;;;3.70;100.00;102355.81;6050914;23;20036;-79
2022/02/26 08:20:57;;;;;;;8.10;2.77;;;;;;;3.70;100.00;102361.06;6126820;23;20061;-79
2022/02/26 08:23:23;;;;;;;5.70;2.90;;;;;;;3.78;100.00;102368.31;6102647;23;20108;-80
2022/02/26 08:25:50;;;;;;;7.63;2.53;;;;;;;3.74;100.00;102373.41;6126016;23;20038;-81
2022/02/26 08:28:17;;;;;;;8.00;2.47;;;;;;;3.80;100.00;102379.75;6053860;23;20088;-78
2022/02/26 08:30:43;;;;;;;8.47;2.83;;;;;;;3.87;100.00;102389.59;6055371;23;20049;-80
2022/02/26 08:33:10;;;;;;;5.03;2.57;;;;;;;4.06;100.00;102398.06;6104698;23;20458;-79
2022/02/26 08:35:37;;;;;;;10.23;3.03;;;;;;;3.90;100.00;102401.88;6101761;23;20100;-78
2022/02/26 08:38:04;;;;;;;5.70;2.50;;;;;;;4.00;100.00;102398.72;6078481;23;20026;-80
2022/02/26 08:40:31;;;;;;;7.30;3.73;;;;;;;3.99;100.00;102412.63;6054588;23;20080;-80
2022/02/26 08:43:00;;;;;;;9.77;2.80;;;;;;;3.89;100.00;102416.66;6103346;23;20458;-80
2022/02/26 08:45:33;;;;;;;9.40;2.53;;;;;;;3.96;100.00;102417.78;6103364;23;20052;-79
2022/02/26 08:48:03;;;;;;;10.57;4.43;;;;;;;4.22;100.00;102416.94;6102998;23;20122;-80
2022/02/26 08:50:29;;;;;;;8.97;3.63;;;;;;;4.21;100.00;102424.75;6078479;23;20193;-78
2022/02/26 08:52:56;;;;;;;7.63;3.00;;;;;;;4.22;100.00;102422.16;6102454;23;20030;-78
2022/02/26 08:55:22;;;;;;;6.00;2.47;;;;;;;4.18;100.00;102424.63;6101809;23;20021;-80
2022/02/26 08:57:49;;;;;;;7.37;2.53;;;;;;;4.18;100.00;102427.22;6078154;23;20114;-80
2022/02/26 09:00:16;;;;;;;8.23;2.80;;;;;;;4.21;100.00;102433.47;6101787;23;20032;-79
2022/02/26 09:02:43;;;;;;;7.07;2.83;;;;;;;4.42;100.00;102435.91;6078236;23;20021;-81
2022/02/26 09:05:11;;;;;;;7.27;2.53;;;;;;;4.53;100.00;102442.38;6078140;23;20025;-79
2022/02/26 09:07:38;;;;;;;9.57;2.97;;;;;;;4.43;100.00;102448.13;6103348;23;20076;-77
2022/02/26 09:10:06;;;;;;;8.30;2.83;;;;;;;4.38;100.00;102451.47;6055165;23;20049;-81
2022/02/26 09:12:33;;;;;;;6.80;3.07;;;;;;;4.52;100.00;102453.69;6078908;23;20026;-79
2022/02/26 09:14:59;;;;;;;5.37;2.13;;;;;;;4.62;100.00;102460.09;6077115;23;20599;-82
2022/02/26 09:17:26;;;;;;;8.47;2.70;;;;;;;4.68;100.00;102457.69;6102463;23;20096;-77
2022/02/26 09:19:52;;;;;;;6.83;2.67;;;;;;;4.64;98.83;102468.03;6102771;23;20022;-80
2022/02/26 09:22:19;;;;;;;8.27;2.30;;;;;;;4.73;100.00;102465.72;6074638;23;20081;-81
2022/02/26 09:24:46;;;;;;;8.57;2.40;;;;;;;4.49;97.50;102469.28;6078901;23;20144;-82
2022/02/26 09:27:12;;;;;;;5.27;2.20;;;;;;;4.58;99.89;102479.19;6126502;23;20037;-80
2022/02/26 09:29:39;;;;;;;6.60;2.83;;;;;;;4.74;99.96;102485.81;6078263;23;20033;-80
2022/02/26 09:32:07;;;;;;;6.50;2.43;;;;;;;4.72;100.00;102487.50;6105308;23;20022;-81
2022/02/26 09:34:33;;;;;;;7.57;2.60;;;;;;;4.65;99.12;102488.13;6112394;23;20025;-80
2022/02/26 09:37:00;;;;;;;4.90;2.20;;;;;;;4.60;98.98;102487.97;6086664;23;20416;-82
2022/02/26 09:39:27;;;;;;;7.00;2.20;;;;;;;4.78;100.00;102493.78;6061913;23;20026;-79
2022/02/26 09:41:56;;;;;;;6.70;2.30;;;;;;;4.88;97.74;102502.88;6062306;23;20056;-81
2022/02/26 09:44:23;;;;;;;5.87;2.17;;;;;;;5.04;96.64;102501.59;6084868;23;20045;-81
2022/02/26 09:46:50;;;;;;;7.73;2.47;;;;;;;5.00;96.74;102502.34;6064463;23;20018;-80
2022/02/26 09:49:19;;;;;;;6.60;2.20;;;;;;;4.93;96.76;102501.25;6088563;23;20105;-82
2022/02/26 09:51:46;;;;;;;9.67;2.10;;;;;;;5.11;95.17;102502.69;6090052;23;20086;-80
2022/02/26 09:54:15;;;;;;;12.17;2.40;;;;;;;5.30;96.75;102512.91;6087712;23;20462;-79
2022/02/26 09:56:42;;;;;;;7.50;2.10;;;;;;;5.21;90.38;102508.28;6084516;23;20032;-79
2022/02/26 09:59:10;;;;;;;5.50;2.40;;;;;;;5.35;89.70;102512.19;6106682;23;20026;-81
2022/02/26 10:04:16;;;;;;;4.73;2.13;;;;;;;5.62;90.09;102521.72;6071004;23;20098;-81
2022/02/26 10:06:42;;;;;;;4.43;2.97;;;;;;;5.74;88.13;102521.22;6095122;23;20069;-80
2022/02/26 10:09:11;;;;;;;5.47;1.93;;;;;;;5.86;88.41;102525.06;6074294;23;20030;-79
2022/02/26 10:11:38;;;;;;;4.63;2.27;;;;;;;5.70;86.74;102527.19;6074407;23;20029;-82
2022/02/26 10:14:14;;;;;;;5.20;2.20;;;;;;;5.81;88.64;102531.03;6073997;23;20308;-80
2022/02/26 10:16:47;;;;;;;6.27;2.47;;;;;;;6.04;89.35;102540.47;6048621;23;20045;-77
2022/02/26 10:19:22;;;;;;;5.73;2.80;;;;;;;6.12;90.17;102543.31;6073181;23;20032;-83
2022/02/26 10:21:50;;;;;;;6.93;2.30;;;;;;;6.21;89.15;102544.44;6046863;23;20021;-77
2022/02/26 10:24:17;;;;;;;7.23;2.13;;;;;;;6.08;85.00;102542.34;6072542;23;20036;-80
2022/02/26 10:27:06;;;;;;;5.30;1.83;;;;;;;6.06;85.29;102546.66;6073144;23;20022;-83
2022/02/26 10:29:37;;;;;;;6.60;2.40;;;;;;;6.07;86.18;102550.19;6073834;23;20026;-81
2022/02/26 10:32:06;;;;;;;6.67;2.20;;;;;;;6.16;85.56;102542.56;6050568;23;20028;-81
2022/02/26 10:34:40;;;;;;;6.67;2.77;;;;;;;6.40;84.08;102558.09;6074825;23;20022;-88
2022/02/26 10:37:07;;;;;;;4.72;2.30;;;;;;;6.27;84.24;102556.84;6075056;23;20026;-83
2022/02/26 10:39:41;;;;;;;6.43;2.20;;;;;;;6.33;82.09;102559.66;6052078;23;20299;-82
2022/02/26 10:42:10;;;;;;;4.15;2.42;;;;;;;6.42;82.07;102556.41;6099795;23;20026;-81
2022/02/26 10:44:37;;;;;;;6.73;1.90;;;;;;;6.26;82.46;102557.72;6098566;23;20026;-83
2022/02/26 10:47:26;;;;;;;4.30;1.77;;;;;;;6.30;83.46;102556.03;6051515;23;20038;-83
2022/02/26 10:49:53;;;;;;;3.67;2.13;;;;;;;6.34;83.43;102553.56;6074889;23;20137;-87
2022/02/26 10:52:30;;;;;;;7.93;1.70;;;;;;;6.30;83.29;102563.91;6077616;23;20032;-82
2022/02/26 10:54:57;;;;;;;8.00;1.90;;;;;;;6.29;83.19;102563.03;6100585;23;20457;-81
2022/02/26 10:57:30;;;;;;;5.03;2.00;;;;;;;6.11;82.12;102560.78;6076946;23;20022;-83
2022/02/26 10:59:57;;;;;;;6.63;1.50;;;;;;;6.07;82.20;102558.94;6053282;23;20022;-85
2022/02/26 11:02:25;;;;;;;5.83;1.73;;;;;;;6.21;84.34;102570.69;6095909;23;20050;-83
2022/02/26 11:04:54;;;;;;;6.47;2.07;;;;;;;6.32;81.58;102572.75;6073141;23;20100;-84
2022/02/26 11:07:21;;;;;;;3.80;1.80;;;;;;;6.29;82.37;102562.16;6072747;23;20022;-81
2022/02/26 11:10:41;;;;;;;3.90;2.27;;;;;;;6.20;81.71;102562.78;6095981;23;20029;-82
2022/02/26 11:13:43;;;;;;;6.90;1.80;;;;;;;6.17;81.80;102568.84;6067640;23;20033;-82
2022/02/26 11:16:12;;;;;;;6.70;3.03;;;;;;;6.28;81.09;102563.00;6094422;23;20022;-81
2022/02/26 11:18:44;;;;;;;5.73;2.53;;;;;;;6.44;82.56;102558.19;6050008;23;20086;-81
2022/02/26 11:21:14;;;;;;;3.97;2.07;;;;;;;6.59;80.33;102565.59;6096517;23;20024;-81
2022/02/26 11:23:45;;;;;;;4.10;2.27;;;;;;;6.62;79.23;102570.03;6095684;23;20033;-81
2022/02/26 11:26:14;;;;;;;5.73;2.23;;;;;;;6.77;79.70;102571.34;6070699;23;20354;-85
2022/02/26 11:28:55;;;;;;;7.80;3.03;;;;;;;7.02;79.05;102575.47;6096506;23;20070;-83